Time;durP1;ratioP1;P1;durP2;ratioP2;P2;SDS_P1;SDS_P2;PMS_P1;PMS_P2;Temp;Humidity;BMP_temperature;BMP_pressure;BME280_temperature;BME280_humidity;BME280_pressure;Samples;Min_cycle;Max_cycle;Signal;HPM_P1;HPM_P2
2022/06/22 00:00:07;;;;;;;;;;;14.50;99.90;;;;;;5114925;28;19972;-66
2022/06/22 00:02:35;;;;;;;;;;;14.40;99.90;;;;;;5114943;28;20459;-67
2022/06/22 00:05:03;;;;;;;;;;;14.40;99.90;;;;;;5115027;27;19920;-67
2022/06/22 00:07:30;;;;;;;;;;;14.40;99.90;;;;;;5115046;28;19926;-67
2022/06/22 00:10:15;;;;;;;;;;;14.20;99.90;;;;;;5114692;28;20358;-67
2022/06/22 00:12:41;;;;;;;;;;;14.20;99.90;;;;;;5114892;28;19919;-67
2022/06/22 00:15:21;;;;;;;;;;;14.10;99.90;;;;;;5114575;28;19931;-67
2022/06/22 00:17:46;;;;;;;;;;;14.00;99.90;;;;;;5114663;28;20387;-67
2022/06/22 00:20:21;;;;;;;;;;;14.00;99.90;;;;;;5114469;28;19926;-66
2022/06/22 00:22:57;;;;;;;;;;;14.00;99.90;;;;;;5114664;28;19926;-67
2022/06/22 00:25:32;;;;;;;;;;;13.90;99.90;;;;;;5114510;28;19942;-67
2022/06/22 00:28:16;;;;;;;;;;;14.00;99.90;;;;;;5113267;28;19920;-66
2022/06/22 00:30:46;;;;;;;;;;;14.00;99.90;;;;;;5114376;28;20376;-67
2022/06/22 00:33:13;;;;;;;;;;;13.90;99.90;;;;;;5113552;28;19919;-67
2022/06/22 00:35:41;;;;;;;;;;;13.80;99.90;;;;;;5114273;28;19950;-68
2022/06/22 00:38:12;;;;;;;;;;;13.80;99.90;;;;;;5114265;27;20472;-67
2022/06/22 00:40:38;;;;;;;;;;;13.70;99.90;;;;;;5114298;27;19963;-67
2022/06/22 00:43:04;;;;;;;;;;;13.70;99.90;;;;;;5114348;28;19971;-67
2022/06/22 00:45:31;;;;;;;;;;;13.80;99.90;;;;;;5114278;28;20042;-67
2022/06/22 00:48:04;;;;;;;;;;;13.80;99.90;;;;;;5114294;28;19919;-67
2022/06/22 00:50:38;;;;;;;;;;;13.80;99.90;;;;;;5113815;28;19931;-67
2022/06/22 00:53:05;;;;;;;;;;;13.70;99.90;;;;;;5114294;28;19926;-67
2022/06/22 00:55:33;;;;;;;;;;;13.60;99.90;;;;;;5114069;28;19967;-67
2022/06/22 00:58:08;;;;;;;;;;;13.50;99.90;;;;;;5113981;28;19923;-67
2022/06/22 01:00:48;;;;;;;;;;;13.30;99.90;;;;;;5113810;28;20010;-66
2022/06/22 01:03:14;;;;;;;;;;;13.50;99.90;;;;;;5113877;28;19930;-67
2022/06/22 01:05:49;;;;;;;;;;;13.50;99.90;;;;;;5113967;28;19923;-67
2022/06/22 01:08:18;;;;;;;;;;;13.60;99.90;;;;;;5113624;28;19927;-67
2022/06/22 01:10:52;;;;;;;;;;;13.50;99.90;;;;;;5113663;28;19958;-66
2022/06/22 01:13:29;;;;;;;;;;;13.50;99.90;;;;;;5113711;28;20018;-67
2022/06/22 01:15:57;;;;;;;;;;;13.50;99.90;;;;;;5113654;28;19923;-67
2022/06/22 01:18:31;;;;;;;;;;;13.50;99.90;;;;;;5113602;28;20015;-67
2022/06/22 01:21:02;;;;;;;;;;;13.30;99.90;;;;;;5113561;28;19926;-66
2022/06/22 01:23:27;;;;;;;;;;;13.20;99.90;;;;;;5112183;28;20512;-66
2022/06/22 01:25:56;;;;;;;;;;;13.10;99.90;;;;;;5113213;28;19963;-67
2022/06/22 01:28:23;;;;;;;;;;;13.20;99.90;;;;;;5113307;28;19923;-66
2022/06/22 01:30:51;;;;;;;;;;;13.20;99.90;;;;;;5113340;28;19920;-67
2022/06/22 01:33:23;;;;;;;;;;;13.20;99.90;;;;;;5113724;28;19927;-68
2022/06/22 01:35:51;;;;;;;;;;;13.20;99.90;;;;;;5113080;28;19932;-67
2022/06/22 01:38:25;;;;;;;;;;;13.20;99.90;;;;;;5113048;28;19920;-67
2022/06/22 01:41:15;;;;;;;;;;;13.20;99.90;;;;;;5113361;28;19920;-67
2022/06/22 01:43:51;;;;;;;;;;;13.10;99.90;;;;;;5113155;28;19920;-67
2022/06/22 01:46:40;;;;;;;;;;;13.00;99.90;;;;;;5113055;28;20441;-67
2022/06/22 01:49:13;;;;;;;;;;;13.00;99.90;;;;;;5101677;28;19926;-67
2022/06/22 01:51:45;;;;;;;;;;;13.00;99.90;;;;;;5113209;28;19927;-67
2022/06/22 01:54:19;;;;;;;;;;;13.00;99.90;;;;;;5112998;28;20011;-67
2022/06/22 01:56:50;;;;;;;;;;;12.90;99.90;;;;;;5112859;28;19919;-67
2022/06/22 01:59:21;;;;;;;;;;;12.90;99.90;;;;;;5112744;28;19919;-67
2022/06/22 02:01:56;;;;;;;;;;;12.80;99.90;;;;;;5112998;28;19920;-66
2022/06/22 02:04:24;;;;;;;;;;;12.80;99.90;;;;;;5112624;28;19926;-66
2022/06/22 02:09:53;;;;;;;;;;;12.60;99.90;;;;;;5112586;28;19932;-66
2022/06/22 02:12:20;;;;;;;;;;;12.60;99.90;;;;;;5112786;28;19924;-67
2022/06/22 02:14:49;;;;;;;;;;;12.60;99.90;;;;;;5112311;28;19938;-67
2022/06/22 02:17:17;;;;;;;;;;;12.60;99.90;;;;;;5112501;28;20410;-66
2022/06/22 02:19:43;;;;;;;;;;;12.60;99.90;;;;;;5111409;28;19942;-67
2022/06/22 02:22:11;;;;;;;;;;;12.50;99.90;;;;;;5112337;28;20375;-67
2022/06/22 02:24:43;;;;;;;;;;;12.60;99.90;;;;;;5112264;28;19941;-66
2022/06/22 02:27:10;;;;;;;;;;;12.60;99.90;;;;;;5112464;28;19927;-67
2022/06/22 02:29:38;;;;;;;;;;;12.60;99.90;;;;;;5112134;28;19920;-67
2022/06/22 02:32:07;;;;;;;;;;;12.40;99.90;;;;;;5112349;28;19962;-67
2022/06/22 02:34:33;;;;;;;;;;;12.30;99.90;;;;;;5111989;28;20025;-67
2022/06/22 02:37:01;;;;;;;;;;;12.10;99.90;;;;;;5112160;28;20310;-66
2022/06/22 02:39:27;;;;;;;;;;;12.20;99.90;;;;;;5111864;28;19919;-66
2022/06/22 02:44:39;;;;;;;;;;;12.30;99.90;;;;;;5112026;28;20384;-67
2022/06/22 02:47:22;;;;;;;;;;;12.30;99.90;;;;;;5111950;28;19920;-66
2022/06/22 02:49:50;;;;;;;;;;;12.30;99.90;;;;;;5111609;28;19920;-66
2022/06/22 02:52:16;;;;;;;;;;;12.10;99.90;;;;;;5112097;28;19920;-67
2022/06/22 02:54:47;;;;;;;;;;;12.10;99.90;;;;;;5111646;28;20411;-66
2022/06/22 02:57:17;;;;;;;;;;;12.00;99.90;;;;;;5110581;28;20389;-66
2022/06/22 02:59:45;;;;;;;;;;;12.10;99.90;;;;;;5109862;28;20045;-66
2022/06/22 03:02:11;;;;;;;;;;;11.90;99.90;;;;;;5111978;28;20303;-67
2022/06/22 03:04:37;;;;;;;;;;;11.80;99.90;;;;;;5110802;28;19920;-67
2022/06/22 03:07:03;;;;;;;;;;;11.70;99.90;;;;;;5109152;28;19981;-66
2022/06/22 03:09:29;;;;;;;;;;;11.70;99.90;;;;;;5109093;28;19976;-67
2022/06/22 03:11:57;;;;;;;;;;;11.80;99.90;;;;;;5109579;28;19923;-66
2022/06/22 03:14:35;;;;;;;;;;;11.80;99.90;;;;;;5110935;28;19926;-67
2022/06/22 03:17:06;;;;;;;;;;;11.70;99.90;;;;;;5111351;28;20303;-67
2022/06/22 03:19:39;;;;;;;;;;;11.70;99.90;;;;;;5110895;28;19927;-66
2022/06/22 03:22:04;;;;;;;;;;;11.60;99.90;;;;;;5110681;28;19924;-66
2022/06/22 03:24:35;;;;;;;;;;;11.40;99.90;;;;;;5110402;28;19920;-66
2022/06/22 03:27:01;;;;;;;;;;;11.40;99.90;;;;;;5111504;28;19930;-67
2022/06/22 03:29:27;;;;;;;;;;;11.50;99.90;;;;;;5111211;28;20414;-66
2022/06/22 03:32:06;;;;;;;;;;;11.60;99.90;;;;;;5115826;28;19919;-66
2022/06/22 03:34:40;;;;;;;;;;;11.60;99.90;;;;;;5115417;27;19927;-67
2022/06/22 03:37:18;;;;;;;;;;;11.60;99.90;;;;;;5115603;28;20334;-66
2022/06/22 03:39:48;;;;;;;;;;;11.60;99.90;;;;;;5115415;28;19928;-66
2022/06/22 03:42:17;;;;;;;;;;;11.60;99.90;;;;;;5115453;28;19930;-66
2022/06/22 03:44:47;;;;;;;;;;;11.50;99.90;;;;;;5115466;28;19919;-66
2022/06/22 03:47:24;;;;;;;;;;;11.50;99.90;;;;;;5115329;28;19920;-66
2022/06/22 03:49:54;;;;;;;;;;;11.50;99.90;;;;;;5114989;28;20299;-66
2022/06/22 03:52:29;;;;;;;;;;;11.50;99.90;;;;;;5114187;28;19985;-66
2022/06/22 03:54:54;;;;;;;;;;;11.60;99.90;;;;;;5115303;28;19928;-66
2022/06/22 03:57:22;;;;;;;;;;;11.70;99.90;;;;;;5115289;28;19920;-67
2022/06/22 03:59:48;;;;;;;;;;;11.70;99.90;;;;;;5114831;28;20045;-67
2022/06/22 04:02:14;;;;;;;;;;;11.60;99.90;;;;;;5115070;28;20392;-67
2022/06/22 04:04:40;;;;;;;;;;;11.70;99.90;;;;;;5115186;28;20288;-67
2022/06/22 04:07:06;;;;;;;;;;;11.70;99.90;;;;;;5115102;28;19927;-67
2022/06/22 04:09:32;;;;;;;;;;;11.90;99.90;;;;;;5114748;28;19919;-66
2022/06/22 04:12:10;;;;;;;;;;;11.80;99.90;;;;;;5114353;28;21255;-67
2022/06/22 04:14:55;;;;;;;;;;;11.90;99.90;;;;;;5113532;28;20307;-67
2022/06/22 04:17:23;;;;;;;;;;;11.90;99.90;;;;;;5114924;28;19945;-67
2022/06/22 04:19:55;;;;;;;;;;;11.90;99.90;;;;;;5114453;28;20361;-67
2022/06/22 04:22:23;;;;;;;;;;;11.90;99.90;;;;;;5114732;28;20418;-66
2022/06/22 04:24:50;;;;;;;;;;;12.00;99.90;;;;;;5114611;28;20023;-67
2022/06/22 04:27:19;;;;;;;;;;;12.10;99.90;;;;;;5114864;28;20018;-67
2022/06/22 04:29:47;;;;;;;;;;;12.30;99.90;;;;;;5114529;28;19919;-67
2022/06/22 04:32:16;;;;;;;;;;;12.50;99.90;;;;;;5113501;28;19927;-67
2022/06/22 04:34:45;;;;;;;;;;;12.60;99.90;;;;;;5114564;28;19923;-67
2022/06/22 04:37:23;;;;;;;;;;;12.70;99.90;;;;;;5114652;28;20281;-66
2022/06/22 04:39:52;;;;;;;;;;;12.90;99.90;;;;;;5114162;28;19986;-67
2022/06/22 04:42:17;;;;;;;;;;;13.10;99.90;;;;;;5113651;28;20410;-67
2022/06/22 04:44:48;;;;;;;;;;;13.20;99.90;;;;;;5114234;28;19919;-67
2022/06/22 04:47:26;;;;;;;;;;;13.50;99.90;;;;;;5114368;28;19919;-66
2022/06/22 04:49:54;;;;;;;;;;;13.60;99.90;;;;;;5113953;28;19949;-66
2022/06/22 04:52:23;;;;;;;;;;;13.80;99.90;;;;;;5114138;28;19927;-67
2022/06/22 04:54:52;;;;;;;;;;;13.80;99.90;;;;;;5112882;28;19932;-67
2022/06/22 04:57:20;;;;;;;;;;;14.10;99.90;;;;;;5114156;28;19919;-67
2022/06/22 04:59:46;;;;;;;;;;;14.20;99.90;;;;;;5113599;27;19920;-66
2022/06/22 05:02:13;;;;;;;;;;;14.40;99.90;;;;;;5112873;28;20485;-67
2022/06/22 05:04:41;;;;;;;;;;;14.50;99.90;;;;;;5113694;28;19935;-66
2022/06/22 05:07:25;;;;;;;;;;;14.50;99.90;;;;;;5113908;28;19977;-67
2022/06/22 05:09:56;;;;;;;;;;;14.70;99.90;;;;;;5113607;28;20007;-66
2022/06/22 05:12:24;;;;;;;;;;;14.80;99.90;;;;;;5112474;28;19920;-67
2022/06/22 05:14:51;;;;;;;;;;;15.00;99.90;;;;;;5112233;28;19928;-67
2022/06/22 05:17:21;;;;;;;;;;;15.30;99.90;;;;;;5113560;28;19972;-67
2022/06/22 05:19:48;;;;;;;;;;;15.30;99.90;;;;;;5111956;28;19920;-67
2022/06/22 05:22:15;;;;;;;;;;;15.30;99.90;;;;;;5113598;28;19923;-67
2022/06/22 05:24:43;;;;;;;;;;;15.60;99.90;;;;;;5113646;28;20312;-67
2022/06/22 05:27:11;;;;;;;;;;;15.50;99.90;;;;;;5113605;28;19927;-67
2022/06/22 05:29:38;;;;;;;;;;;15.60;99.90;;;;;;5113075;28;19919;-67
2022/06/22 05:32:09;;;;;;;;;;;15.80;99.90;;;;;;5113619;28;20022;-67
2022/06/22 05:34:36;;;;;;;;;;;15.90;99.90;;;;;;5113214;28;19949;-67
2022/06/22 05:37:06;;;;;;;;;;;16.00;99.90;;;;;;5113448;28;19926;-66
2022/06/22 05:39:35;;;;;;;;;;;16.20;99.90;;;;;;5112916;28;19919;-66
2022/06/22 05:42:01;;;;;;;;;;;16.40;99.90;;;;;;5113168;28;19967;-66
2022/06/22 05:44:28;;;;;;;;;;;16.30;99.90;;;;;;5111754;28;19928;-67
2022/06/22 05:46:55;;;;;;;;;;;16.50;99.90;;;;;;5113235;28;19919;-67
2022/06/22 05:49:25;;;;;;;;;;;16.60;99.90;;;;;;5113002;28;19927;-67
2022/06/22 05:51:54;;;;;;;;;;;16.60;99.90;;;;;;5113335;28;19958;-67
2022/06/22 05:54:27;;;;;;;;;;;16.70;99.90;;;;;;5112063;28;20427;-67
2022/06/22 05:57:13;;;;;;;;;;;16.70;99.90;;;;;;5113111;28;19973;-67
2022/06/22 05:59:45;;;;;;;;;;;16.90;99.90;;;;;;5112487;28;19935;-67
2022/06/22 06:02:18;;;;;;;;;;;16.90;99.90;;;;;;5112961;28;20338;-67
2022/06/22 06:04:48;;;;;;;;;;;17.10;99.90;;;;;;5112705;28;19950;-67
2022/06/22 06:07:17;;;;;;;;;;;17.10;99.90;;;;;;5112669;28;19931;-67
2022/06/22 06:09:43;;;;;;;;;;;17.20;99.90;;;;;;5112565;28;19927;-67
2022/06/22 06:12:21;;;;;;;;;;;17.20;99.90;;;;;;5112817;28;20347;-67
2022/06/22 06:14:49;;;;;;;;;;;17.30;99.90;;;;;;5112433;28;19930;-67
2022/06/22 06:17:17;;;;;;;;;;;17.20;99.90;;;;;;5112548;28;19920;-66
2022/06/22 06:19:44;;;;;;;;;;;17.40;99.90;;;;;;5112124;28;19920;-67
2022/06/22 06:22:10;;;;;;;;;;;17.40;99.90;;;;;;5112541;28;19989;-66
2022/06/22 06:27:42;;;;;;;;;;;17.50;99.90;;;;;;5112352;28;19920;-66
2022/06/22 06:30:19;;;;;;;;;;;17.40;99.90;;;;;;5111792;28;20015;-67
2022/06/22 06:32:45;;;;;;;;;;;17.50;99.90;;;;;;5112420;28;20299;-67
2022/06/22 06:35:20;;;;;;;;;;;17.60;99.90;;;;;;5112130;28;19924;-67
2022/06/22 06:37:56;;;;;;;;;;;17.60;99.90;;;;;;5112210;28;19926;-67
2022/06/22 06:40:24;;;;;;;;;;;17.70;99.90;;;;;;5111727;28;19971;-67
2022/06/22 06:42:56;;;;;;;;;;;17.70;99.90;;;;;;5112298;28;20295;-67
2022/06/22 06:45:22;;;;;;;;;;;17.80;99.90;;;;;;5110626;28;19920;-67
2022/06/22 06:47:51;;;;;;;;;;;18.10;99.90;;;;;;5112108;28;19923;-67
2022/06/22 06:50:20;;;;;;;;;;;17.80;99.90;;;;;;5110445;28;19926;-67
2022/06/22 06:52:50;;;;;;;;;;;17.90;99.90;;;;;;5111872;28;20528;-67
2022/06/22 06:55:30;;;;;;;;;;;17.90;99.90;;;;;;5110480;28;20327;-67
2022/06/22 06:58:06;;;;;;;;;;;17.90;99.90;;;;;;5110434;28;19919;-67
2022/06/22 07:00:32;;;;;;;;;;;18.00;99.90;;;;;;5111692;28;19970;-67
2022/06/22 07:02:58;;;;;;;;;;;18.10;99.90;;;;;;5111826;28;20320;-67
2022/06/22 07:05:25;;;;;;;;;;;18.10;99.90;;;;;;5111264;28;20388;-67
2022/06/22 07:07:53;;;;;;;;;;;18.20;99.90;;;;;;5112019;28;19992;-67
2022/06/22 07:10:26;;;;;;;;;;;18.30;99.90;;;;;;5111554;28;20400;-67
2022/06/22 07:13:04;;;;;;;;;;;18.20;99.90;;;;;;5111867;28;20283;-69
2022/06/22 07:15:33;;;;;;;;;;;18.20;99.90;;;;;;5111660;28;19924;-69
2022/06/22 07:18:03;;;;;;;;;;;18.30;99.90;;;;;;5111760;28;19974;-67
2022/06/22 07:20:31;;;;;;;;;;;18.20;99.90;;;;;;5093707;28;19927;-67
2022/06/22 07:23:01;;;;;;;;;;;18.30;99.90;;;;;;5091492;28;19928;-68
2022/06/22 07:25:34;;;;;;;;;;;18.40;99.90;;;;;;5091351;28;19934;-67
2022/06/22 07:28:02;;;;;;;;;;;18.50;99.90;;;;;;5091356;28;19928;-67
2022/06/22 07:30:33;;;;;;;;;;;18.50;99.90;;;;;;5090914;28;20410;-67
2022/06/22 07:33:01;;;;;;;;;;;18.60;99.90;;;;;;5091692;28;19920;-67
2022/06/22 07:35:30;;;;;;;;;;;18.60;99.90;;;;;;5091123;28;20281;-67
2022/06/22 07:38:19;;;;;;;;;;;18.80;99.90;;;;;;5091217;28;19935;-67
2022/06/22 07:43:30;;;;;;;;;;;18.90;99.90;;;;;;5091259;28;19943;-67
2022/06/22 07:45:56;;;;;;;;;;;18.90;99.90;;;;;;5091009;28;19920;-67
2022/06/22 07:48:22;;;;;;;;;;;19.20;99.90;;;;;;5090960;28;19994;-68
2022/06/22 07:50:53;;;;;;;;;;;19.20;99.90;;;;;;5090893;28;19920;-68
2022/06/22 07:53:25;;;;;;;;;;;19.10;99.90;;;;;;5090897;28;20030;-67
2022/06/22 07:55:56;;;;;;;;;;;19.20;99.90;;;;;;5090961;28;19967;-68
2022/06/22 07:58:34;;;;;;;;;;;19.30;99.90;;;;;;5089359;28;19928;-68
2022/06/22 08:01:04;;;;;;;;;;;19.30;99.90;;;;;;5090979;28;19935;-68
2022/06/22 08:03:29;;;;;;;;;;;19.30;99.90;;;;;;5090922;28;19929;-67
2022/06/22 08:05:57;;;;;;;;;;;19.20;99.90;;;;;;5090726;28;19968;-67
2022/06/22 08:08:24;;;;;;;;;;;19.10;99.90;;;;;;5090959;28;19920;-67
2022/06/22 08:10:53;;;;;;;;;;;19.40;99.90;;;;;;5090877;28;19977;-67
2022/06/22 08:13:22;;;;;;;;;;;19.40;99.90;;;;;;5090749;28;19959;-68
2022/06/22 08:15:54;;;;;;;;;;;19.40;99.90;;;;;;5090644;28;20007;-67
2022/06/22 08:18:20;;;;;;;;;;;19.40;99.90;;;;;;5093577;28;19934;-67
2022/06/22 08:20:47;;;;;;;;;;;19.60;99.90;;;;;;5094402;28;19920;-68
2022/06/22 08:23:15;;;;;;;;;;;19.60;99.90;;;;;;5094556;28;19927;-67
2022/06/22 08:25:44;;;;;;;;;;;19.80;98.90;;;;;;5094286;28;19974;-68
2022/06/22 08:28:12;;;;;;;;;;;19.80;99.80;;;;;;5093181;28;19970;-67
2022/06/22 08:30:38;;;;;;;;;;;19.80;99.80;;;;;;5093953;28;20025;-67
2022/06/22 08:33:05;;;;;;;;;;;19.80;99.30;;;;;;5094112;28;19924;-67
2022/06/22 08:35:34;;;;;;;;;;;19.90;98.90;;;;;;5094169;28;19924;-68
2022/06/22 08:38:25;;;;;;;;;;;19.90;98.30;;;;;;5094038;28;20380;-67
2022/06/22 08:40:56;;;;;;;;;;;20.00;99.20;;;;;;5092808;28;20015;-68
2022/06/22 08:43:25;;;;;;;;;;;20.20;99.70;;;;;;5093906;28;20351;-68
2022/06/22 08:45:54;;;;;;;;;;;20.40;99.30;;;;;;5093877;28;19989;-68
2022/06/22 08:48:31;;;;;;;;;;;20.60;99.50;;;;;;5093996;28;19928;-68
2022/06/22 08:51:06;;;;;;;;;;;20.60;98.70;;;;;;5094050;28;19920;-68
2022/06/22 08:53:45;;;;;;;;;;;20.20;98.50;;;;;;5093898;28;19926;-68
2022/06/22 08:56:19;;;;;;;;;;;20.30;98.40;;;;;;5093980;28;19977;-67
2022/06/22 08:58:45;;;;;;;;;;;20.40;97.90;;;;;;5093526;28;19959;-67
2022/06/22 09:01:27;;;;;;;;;;;20.30;96.70;;;;;;5093790;28;20423;-68
2022/06/22 09:04:05;;;;;;;;;;;20.30;97.70;;;;;;5092219;28;19920;-68
2022/06/22 09:06:33;;;;;;;;;;;20.30;97.20;;;;;;5093451;28;19920;-68
2022/06/22 09:09:07;;;;;;;;;;;20.50;98.20;;;;;;5093607;28;19924;-67
2022/06/22 09:11:36;;;;;;;;;;;20.50;98.30;;;;;;5093416;28;19920;-67
2022/06/22 09:14:27;;;;;;;;;;;20.60;98.00;;;;;;5093329;28;19973;-67
2022/06/22 09:17:12;;;;;;;;;;;20.60;97.70;;;;;;5093567;28;20360;-67
2022/06/22 09:19:52;;;;;;;;;;;20.70;97.80;;;;;;5093115;28;19924;-69
2022/06/22 09:22:22;;;;;;;;;;;20.70;96.90;;;;;;5093234;28;19920;-67
2022/06/22 09:25:01;;;;;;;;;;;20.70;97.20;;;;;;5093145;28;19920;-68
2022/06/22 09:27:35;;;;;;;;;;;20.80;96.40;;;;;;5093081;28;19920;-68
2022/06/22 09:30:09;;;;;;;;;;;20.80;96.70;;;;;;5092761;28;20372;-67
2022/06/22 09:32:35;;;;;;;;;;;21.00;96.90;;;;;;5093087;28;19920;-68
2022/06/22 09:35:09;;;;;;;;;;;20.80;96.20;;;;;;5092847;28;19924;-68
2022/06/22 09:37:53;;;;;;;;;;;20.90;96.60;;;;;;5091579;28;19927;-68
2022/06/22 09:40:18;;;;;;;;;;;20.90;97.50;;;;;;5092792;28;19920;-68
2022/06/22 09:43:00;;;;;;;;;;;21.00;96.90;;;;;;5092969;28;19924;-69
2022/06/22 09:45:40;;;;;;;;;;;20.90;97.20;;;;;;5092751;28;20455;-68
2022/06/22 09:48:22;;;;;;;;;;;21.00;96.30;;;;;;5092714;28;19974;-68
2022/06/22 09:50:56;;;;;;;;;;;21.00;96.30;;;;;;5091227;28;19920;-69
2022/06/22 09:53:21;;;;;;;;;;;21.30;95.90;;;;;;5092795;28;19926;-68
2022/06/22 09:58:42;;;;;;;;;;;21.20;95.30;;;;;;5092240;28;19928;-68
2022/06/22 10:01:27;;;;;;;;;;;21.30;95.80;;;;;;5091178;28;19927;-68
2022/06/22 10:03:58;;;;;;;;;;;21.30;96.10;;;;;;5092379;28;19968;-68
2022/06/22 10:06:32;;;;;;;;;;;21.40;95.70;;;;;;5092395;28;19924;-68
2022/06/22 10:09:01;;;;;;;;;;;21.30;95.30;;;;;;5091879;28;19920;-68
2022/06/22 10:11:45;;;;;;;;;;;21.30;95.20;;;;;;5092320;28;19920;-68
2022/06/22 10:14:39;;;;;;;;;;;21.40;94.50;;;;;;5090940;28;20007;-68
2022/06/22 10:17:20;;;;;;;;;;;21.30;95.30;;;;;;5054462;28;19964;-69
2022/06/22 10:20:18;;;;;;;;;;;21.50;94.40;;;;;;5091850;28;20426;-68
2022/06/22 10:23:05;;;;;;;;;;;21.50;93.70;;;;;;5049369;28;20431;-69
2022/06/22 10:25:49;;;;;;;;;;;21.50;93.80;;;;;;5049289;28;19970;-68
2022/06/22 10:28:32;;;;;;;;;;;21.60;94.10;;;;;;5049450;28;19975;-68
2022/06/22 10:31:06;;;;;;;;;;;21.70;94.30;;;;;;5049320;28;19964;-69
2022/06/22 10:33:42;;;;;;;;;;;21.60;93.60;;;;;;5088552;28;20012;-68
2022/06/22 10:36:27;;;;;;;;;;;21.60;93.40;;;;;;5091777;28;20449;-68
2022/06/22 10:39:08;;;;;;;;;;;21.70;92.60;;;;;;5091365;28;20395;-69
2022/06/22 10:47:25;;;;;;;;;;;21.90;92.70;;;;;;5091852;28;20001;-69
2022/06/22 10:49:57;;;;;;;;;;;21.80;90.70;;;;;;5091482;28;20023;-68
2022/06/22 10:52:37;;;;;;;;;;;21.80;90.90;;;;;;5091588;28;19928;-69
2022/06/22 10:55:12;;;;;;;;;;;22.00;88.80;;;;;;5091677;28;19924;-69
2022/06/22 10:57:44;;;;;;;;;;;22.20;86.60;;;;;;5091755;28;20299;-68
2022/06/22 11:00:14;;;;;;;;;;;22.20;83.00;;;;;;5091415;28;20360;-68
2022/06/22 11:02:43;;;;;;;;;;;21.80;81.00;;;;;;5090719;28;19924;-69
2022/06/22 11:05:18;;;;;;;;;;;21.90;83.40;;;;;;5089965;28;19920;-69
2022/06/22 11:07:43;;;;;;;;;;;22.00;87.50;;;;;;5091676;28;20350;-69
2022/06/22 11:10:09;;;;;;;;;;;22.10;86.80;;;;;;5091304;28;19932;-69
2022/06/22 11:12:46;;;;;;;;;;;22.10;84.60;;;;;;5091378;28;19920;-69
2022/06/22 11:15:32;;;;;;;;;;;22.20;85.80;;;;;;5091115;28;20570;-71
2022/06/22 11:18:13;;;;;;;;;;;22.00;84.80;;;;;;5091705;28;19920;-72
2022/06/22 11:20:46;;;;;;;;;;;22.20;84.00;;;;;;5091019;28;19970;-71
2022/06/22 11:23:15;;;;;;;;;;;22.20;82.40;;;;;;5090023;28;19920;-71
2022/06/22 11:31:35;;;;;;;;;;;22.30;82.40;;;;;;5090103;28;19924;-72
2022/06/22 11:34:20;;;;;;;;;;;22.30;84.00;;;;;;5091237;28;19920;-71
2022/06/22 11:37:12;;;;;;;;;;;22.30;81.30;;;;;;5089988;28;20335;-72
2022/06/22 11:39:51;;;;;;;;;;;22.10;80.80;;;;;;5074546;28;19920;-72
2022/06/22 11:42:27;;;;;;;;;;;22.40;84.00;;;;;;5090270;28;20356;-72
2022/06/22 11:47:59;;;;;;;;;;;22.40;75.90;;;;;;5089687;28;20300;-72
2022/06/22 11:50:38;;;;;;;;;;;22.40;73.30;;;;;;5042577;28;19927;-73
2022/06/22 11:53:14;;;;;;;;;;;22.50;74.10;;;;;;5093657;28;19920;-72
2022/06/22 11:55:43;;;;;;;;;;;22.60;75.80;;;;;;5095050;28;19928;-71
2022/06/22 11:58:47;;;;;;;;;;;22.70;73.10;;;;;;5094746;28;19973;-71
2022/06/22 12:01:24;;;;;;;;;;;22.70;71.30;;;;;;5051933;28;19974;-71
2022/06/22 12:04:08;;;;;;;;;;;22.80;74.20;;;;;;5051882;28;19921;-72
2022/06/22 12:07:06;;;;;;;;;;;23.00;74.00;;;;;;5051928;28;20004;-73
2022/06/22 12:09:49;;;;;;;;;;;22.80;73.60;;;;;;5031681;28;20356;-72
2022/06/22 12:12:17;;;;;;;;;;;22.70;74.00;;;;;;5015326;28;19921;-69
2022/06/22 12:15:05;;;;;;;;;;;22.90;78.40;;;;;;5031922;28;19925;-69
2022/06/22 12:17:48;;;;;;;;;;;23.00;74.60;;;;;;5031974;28;20344;-72
2022/06/22 12:20:20;;;;;;;;;;;22.50;75.50;;;;;;5031550;28;20044;-73
2022/06/22 12:22:54;;;;;;;;;;;22.90;76.10;;;;;;5031909;28;19972;-71
2022/06/22 12:25:32;;;;;;;;;;;22.70;74.90;;;;;;5031827;28;20024;-72
2022/06/22 12:28:03;;;;;;;;;;;22.70;75.50;;;;;;5031843;28;19921;-71
2022/06/22 12:30:31;;;;;;;;;;;22.80;75.10;;;;;;5031398;28;20462;-71
2022/06/22 12:32:56;;;;;;;;;;;23.00;77.90;;;;;;5049398;28;20373;-72
2022/06/22 12:35:36;;;;;;;;;;;22.70;76.40;;;;;;5034656;28;19925;-72
2022/06/22 12:38:20;;;;;;;;;;;22.60;78.20;;;;;;5051370;28;19986;-71
2022/06/22 12:41:00;;;;;;;;;;;22.60;76.20;;;;;;5051125;28;20380;-71
2022/06/22 12:43:44;;;;;;;;;;;23.00;76.80;;;;;;5051530;28;19929;-71
2022/06/22 12:46:18;;;;;;;;;;;23.30;75.70;;;;;;5087769;28;19999;-72
2022/06/22 12:49:03;;;;;;;;;;;23.00;74.50;;;;;;5093727;28;19986;-70
2022/06/22 12:51:33;;;;;;;;;;;22.90;73.00;;;;;;5093785;28;19943;-71
2022/06/22 12:53:59;;;;;;;;;;;22.90;71.10;;;;;;5092405;28;20015;-72
2022/06/22 12:56:28;;;;;;;;;;;22.90;71.60;;;;;;5092394;28;20449;-71
2022/06/22 12:58:53;;;;;;;;;;;23.00;71.40;;;;;;5093271;28;19927;-72
2022/06/22 13:01:19;;;;;;;;;;;23.00;70.60;;;;;;5093671;28;19928;-72
2022/06/22 13:03:50;;;;;;;;;;;22.70;68.80;;;;;;5092786;28;19930;-71
2022/06/22 13:06:15;;;;;;;;;;;23.00;72.40;;;;;;5092214;28;19924;-72
2022/06/22 13:08:41;;;;;;;;;;;23.20;71.80;;;;;;5093442;28;19948;-72
2022/06/22 13:11:12;;;;;;;;;;;23.20;70.90;;;;;;5092233;28;19920;-71
2022/06/22 13:13:47;;;;;;;;;;;23.30;71.80;;;;;;5093567;28;19927;-72
2022/06/22 13:16:21;;;;;;;;;;;23.30;71.60;;;;;;5093303;28;19978;-71
2022/06/22 13:19:11;;;;;;;;;;;23.10;72.10;;;;;;5093277;28;19920;-71
2022/06/22 13:21:41;;;;;;;;;;;23.10;71.80;;;;;;5093292;28;19962;-72
2022/06/22 13:24:25;;;;;;;;;;;23.40;67.80;;;;;;5093214;28;20373;-72
2022/06/22 13:27:09;;;;;;;;;;;23.20;68.30;;;;;;5093013;28;19927;-72
2022/06/22 13:29:38;;;;;;;;;;;23.30;64.90;;;;;;5091804;28;20304;-72
2022/06/22 13:32:06;;;;;;;;;;;23.40;62.80;;;;;;5093105;28;20338;-71
2022/06/22 13:34:37;;;;;;;;;;;23.20;64.00;;;;;;5092926;28;19927;-72
2022/06/22 13:37:06;;;;;;;;;;;23.20;68.00;;;;;;5092928;28;19925;-71
2022/06/22 13:39:51;;;;;;;;;;;23.30;69.90;;;;;;5092834;28;20497;-71
2022/06/22 13:42:27;;;;;;;;;;;23.40;69.10;;;;;;5091556;28;19920;-71
2022/06/22 13:45:08;;;;;;;;;;;23.30;69.10;;;;;;5092721;28;20407;-71
2022/06/22 13:47:44;;;;;;;;;;;23.60;67.40;;;;;;5092691;28;20009;-72
2022/06/22 13:50:28;;;;;;;;;;;23.60;65.60;;;;;;5092540;28;20362;-72
2022/06/22 13:52:55;;;;;;;;;;;23.50;71.50;;;;;;5091498;28;19924;-72
2022/06/22 13:55:41;;;;;;;;;;;23.30;67.90;;;;;;5092561;28;19924;-72
2022/06/22 13:58:14;;;;;;;;;;;23.40;69.30;;;;;;5091421;28;19924;-72
2022/06/22 14:00:51;;;;;;;;;;;23.60;66.40;;;;;;5093493;28;19931;-72
2022/06/22 14:03:36;;;;;;;;;;;23.30;69.70;;;;;;5091732;28;20437;-68
2022/06/22 14:06:13;;;;;;;;;;;23.40;70.70;;;;;;5093808;28;19920;-68
2022/06/22 14:08:41;;;;;;;;;;;23.50;69.20;;;;;;5090107;28;19966;-69
2022/06/22 14:11:10;;;;;;;;;;;23.60;68.60;;;;;;5091535;28;19920;-69
2022/06/22 14:13:39;;;;;;;;;;;23.60;65.30;;;;;;5092297;28;19920;-68
2022/06/22 14:16:07;;;;;;;;;;;23.60;66.90;;;;;;5091383;28;19928;-70
2022/06/22 14:18:40;;;;;;;;;;;23.70;69.30;;;;;;5091852;28;19998;-68
2022/06/22 14:21:25;;;;;;;;;;;23.80;68.70;;;;;;5092052;28;19965;-68
2022/06/22 14:23:51;;;;;;;;;;;23.70;68.00;;;;;;5092135;28;19982;-68
2022/06/22 14:26:25;;;;;;;;;;;23.80;66.40;;;;;;5092130;28;20043;-68
2022/06/22 14:29:09;;;;;;;;;;;23.80;66.80;;;;;;5091750;28;19920;-69
2022/06/22 14:31:56;;;;;;;;;;;23.90;69.30;;;;;;5092007;28;19924;-68
2022/06/22 14:34:28;;;;;;;;;;;23.90;68.80;;;;;;5090697;28;19970;-68
2022/06/22 14:36:56;;;;;;;;;;;23.80;68.90;;;;;;5091866;28;19924;-68
2022/06/22 14:39:40;;;;;;;;;;;24.00;70.30;;;;;;5073418;28;19927;-68
2022/06/22 14:42:17;;;;;;;;;;;24.00;70.30;;;;;;5092063;28;19919;-68
2022/06/22 14:44:49;;;;;;;;;;;24.10;72.50;;;;;;5090745;28;19960;-68
2022/06/22 14:47:18;;;;;;;;;;;24.00;72.20;;;;;;5091867;28;19924;-69
2022/06/22 14:49:46;;;;;;;;;;;24.10;72.00;;;;;;5091439;28;20392;-67
2022/06/22 14:52:15;;;;;;;;;;;24.10;72.80;;;;;;5091651;28;19920;-67
2022/06/22 14:54:41;;;;;;;;;;;24.10;73.50;;;;;;5091606;28;19920;-67
2022/06/22 14:57:06;;;;;;;;;;;24.00;69.70;;;;;;5090308;28;20429;-67
2022/06/22 14:59:41;;;;;;;;;;;24.00;73.20;;;;;;5091216;28;19924;-68
2022/06/22 15:02:06;;;;;;;;;;;24.00;73.60;;;;;;5091579;28;19920;-67
2022/06/22 15:04:50;;;;;;;;;;;24.00;74.10;;;;;;5091188;28;19920;-67
2022/06/22 15:07:34;;;;;;;;;;;24.10;76.20;;;;;;5091333;28;20385;-67
2022/06/22 15:10:06;;;;;;;;;;;24.00;74.10;;;;;;5091038;28;19930;-68
2022/06/22 15:15:27;;;;;;;;;;;24.00;72.10;;;;;;5091186;28;19924;-67
2022/06/22 15:18:11;;;;;;;;;;;24.00;74.00;;;;;;5091441;28;19920;-69